createdAt,value
2022-08-01T00:00:11.042Z,11.33
2022-08-01T00:02:39.932Z,11.00
2022-08-01T00:05:09.738Z,12.93
2022-08-01T00:07:38.346Z,10.97
2022-08-01T00:10:08.440Z,11.60
2022-08-01T00:12:36.920Z,12.77
2022-08-01T00:15:06.471Z,10.57
2022-08-01T00:17:36.129Z,13.40
2022-08-01T00:20:06.650Z,11.10
2022-08-01T00:22:35.327Z,11.50
2022-08-01T00:25:03.750Z,11.53
2022-08-01T00:27:32.553Z,11.10
2022-08-01T00:30:11.682Z,13.47
2022-08-01T00:32:44.136Z,11.17
2022-08-01T00:35:12.644Z,12.50
2022-08-01T00:37:40.766Z,11.67
2022-08-01T00:40:10.113Z,12.00
2022-08-01T00:42:43.283Z,11.87
2022-08-01T00:45:13.071Z,12.40
2022-08-01T00:47:42.966Z,13.70
2022-08-01T00:50:11.946Z,11.87
2022-08-01T00:52:42.459Z,11.63
2022-08-01T00:55:13.155Z,11.13
2022-08-01T00:58:02.859Z,10.63
2022-08-01T01:00:33.807Z,9.97
2022-08-01T01:03:11.230Z,11.83
2022-08-01T01:05:50.474Z,9.17
2022-08-01T01:08:24.485Z,10.57
2022-08-01T01:10:57.828Z,9.80
2022-08-01T01:13:35.172Z,9.07
2022-08-01T01:16:19.038Z,9.93
2022-08-01T01:18:51.745Z,8.97
2022-08-01T01:21:46.673Z,9.67
2022-08-01T01:24:30.542Z,8.67
2022-08-01T01:27:08.259Z,8.53
2022-08-01T01:29:58.860Z,9.33
2022-08-01T01:32:35.030Z,8.90
2022-08-01T01:35:07.498Z,8.90
2022-08-01T01:37:37.511Z,11.20
2022-08-01T01:40:07.733Z,7.73
2022-08-01T01:42:36.520Z,8.43
2022-08-01T01:45:08.407Z,7.10
2022-08-01T01:47:37.995Z,7.07
2022-08-01T01:50:09.057Z,7.43
2022-08-01T01:52:40.877Z,8.33
2022-08-01T01:55:11.156Z,6.73
2022-08-01T01:57:42.428Z,7.20
2022-08-01T02:00:17.533Z,6.30
2022-08-01T02:02:46.803Z,5.23
2022-08-01T02:05:15.926Z,6.33
2022-08-01T02:07:45.187Z,6.53
2022-08-01T02:10:19.307Z,5.30
2022-08-01T02:12:51.077Z,5.10
2022-08-01T02:15:21.610Z,5.10
2022-08-01T02:17:51.815Z,6.83
2022-08-01T02:20:20.199Z,5.00
2022-08-01T02:22:53.107Z,5.43
2022-08-01T02:25:27.513Z,5.13
2022-08-01T02:28:01.712Z,4.43
2022-08-01T02:30:36.181Z,5.67
2022-08-01T02:33:15.402Z,6.13
2022-08-01T02:36:32.203Z,5.10
2022-08-01T02:38:37.693Z,6.33
2022-08-01T02:41:09.760Z,4.80
2022-08-01T02:43:40.806Z,4.80
2022-08-01T02:46:13.718Z,5.47
2022-08-01T02:48:45.109Z,5.20
2022-08-01T02:51:14.454Z,4.47
2022-08-01T02:53:45.012Z,4.73
2022-08-01T02:56:13.860Z,4.40
2022-08-01T02:58:44.686Z,4.03
2022-08-01T03:01:16.056Z,4.00
2022-08-01T03:03:44.758Z,4.40
2022-08-01T03:06:13.633Z,4.57
2022-08-01T03:08:42.745Z,4.80
2022-08-01T03:11:11.018Z,4.07
2022-08-01T03:13:40.483Z,4.60
2022-08-01T03:16:09.689Z,5.20
2022-08-01T03:18:40.330Z,4.73
2022-08-01T03:21:10.686Z,4.93
2022-08-01T03:23:40.423Z,4.27
2022-08-01T03:26:08.819Z,4.87
2022-08-01T03:28:39.195Z,4.97
2022-08-01T03:31:07.765Z,5.03
2022-08-01T03:33:36.091Z,3.67
2022-08-01T03:36:10.470Z,3.90
2022-08-01T03:38:41.214Z,3.47
2022-08-01T03:41:13.074Z,3.70
2022-08-01T03:43:46.224Z,3.50
2022-08-01T03:46:19.301Z,4.03
2022-08-01T03:48:51.137Z,3.30
2022-08-01T03:51:23.393Z,5.97
2022-08-01T03:53:53.386Z,3.63
2022-08-01T03:56:22.981Z,4.07
2022-08-01T03:58:52.471Z,3.20
2022-08-01T04:01:21.531Z,4.87
2022-08-01T04:03:49.956Z,4.20
2022-08-01T04:06:18.247Z,4.30
2022-08-01T04:08:56.377Z,4.77
2022-08-01T04:11:26.577Z,4.13
2022-08-01T04:13:55.550Z,4.10
2022-08-01T04:16:23.957Z,3.90
2022-08-01T04:18:52.637Z,3.23
2022-08-01T04:21:25.253Z,4.00
2022-08-01T04:23:56.071Z,3.10
2022-08-01T04:26:25.270Z,4.27
2022-08-01T04:28:56.136Z,5.63
2022-08-01T04:31:26.982Z,4.00
2022-08-01T04:33:57.394Z,4.03
2022-08-01T04:36:26.715Z,3.00
2022-08-01T04:38:59.884Z,3.83
2022-08-01T04:41:28.627Z,3.27
2022-08-01T04:43:56.781Z,3.40
2022-08-01T04:46:25.130Z,3.33
2022-08-01T04:48:53.682Z,6.83
2022-08-01T04:51:23.133Z,4.37
2022-08-01T04:53:52.538Z,4.67
2022-08-01T04:56:22.704Z,7.23
2022-08-01T04:59:15.587Z,5.83
2022-08-01T05:01:51.403Z,7.13
2022-08-01T05:04:19.747Z,5.27
2022-08-01T05:06:47.878Z,4.40
2022-08-01T05:09:16.934Z,4.13
2022-08-01T05:11:46.380Z,4.50
2022-08-01T05:14:14.502Z,4.73
2022-08-01T05:16:42.772Z,4.07
2022-08-01T05:19:11.213Z,4.57
2022-08-01T05:21:39.373Z,4.00
2022-08-01T05:24:07.931Z,6.60
2022-08-01T05:26:36.860Z,3.83
2022-08-01T05:29:06.339Z,5.83
2022-08-01T05:31:35.298Z,6.23
2022-08-01T05:34:03.937Z,6.33
2022-08-01T05:36:32.235Z,4.60
2022-08-01T05:39:00.350Z,6.13
2022-08-01T05:41:28.517Z,5.33
2022-08-01T05:43:56.602Z,9.70
2022-08-01T05:46:27.686Z,6.83
2022-08-01T05:48:55.951Z,5.77
2022-08-01T05:51:24.101Z,6.80
2022-08-01T05:53:52.295Z,6.30
2022-08-01T05:56:20.914Z,8.50
2022-08-01T05:58:49.092Z,7.10
2022-08-01T06:01:17.575Z,7.93
2022-08-01T06:03:47.532Z,8.80
2022-08-01T06:06:16.121Z,5.47
2022-08-01T06:08:44.165Z,8.60
2022-08-01T06:11:13.468Z,6.50
2022-08-01T06:13:44.973Z,7.73
2022-08-01T06:16:17.261Z,5.17
2022-08-01T06:18:46.706Z,9.20
2022-08-01T06:21:14.879Z,11.50
2022-08-01T06:23:43.502Z,6.60
2022-08-01T06:26:11.928Z,7.23
2022-08-01T06:28:40.438Z,8.17
2022-08-01T06:31:08.516Z,8.07
2022-08-01T06:33:36.629Z,8.97
2022-08-01T06:36:06.655Z,13.40
2022-08-01T06:38:34.719Z,10.97
2022-08-01T06:41:03.304Z,11.77
2022-08-01T06:43:32.213Z,13.03
2022-08-01T06:46:00.378Z,12.23
2022-08-01T06:48:28.498Z,12.70
2022-08-01T06:51:09.596Z,11.77
2022-08-01T06:53:39.716Z,14.13
2022-08-01T06:56:09.555Z,14.03
2022-08-01T06:58:37.764Z,18.43
2022-08-01T07:01:08.003Z,12.70
2022-08-01T07:03:52.382Z,13.33
2022-08-01T07:06:22.318Z,15.63
2022-08-01T07:08:51.919Z,13.73
2022-08-01T07:11:20.416Z,15.87
2022-08-01T07:13:48.569Z,14.03
2022-08-01T07:16:17.288Z,15.57
2022-08-01T07:18:45.906Z,10.70
2022-08-01T07:21:16.777Z,11.83
2022-08-01T07:24:11.968Z,12.30
2022-08-01T07:26:52.291Z,10.90
2022-08-01T07:29:23.419Z,14.37
2022-08-01T07:31:51.517Z,14.17
2022-08-01T07:34:19.580Z,10.97
2022-08-01T07:36:47.989Z,11.63
2022-08-01T07:39:17.486Z,8.67
2022-08-01T07:42:05.933Z,9.43
2022-08-01T07:44:33.756Z,11.97
2022-08-01T07:47:01.853Z,14.60
2022-08-01T07:49:30.084Z,9.17
2022-08-01T07:52:03.407Z,12.50
2022-08-01T07:54:34.808Z,10.83
2022-08-01T07:57:03.510Z,13.67
2022-08-01T07:59:31.714Z,10.27
2022-08-01T08:02:00.179Z,11.30
2022-08-01T08:04:29.506Z,13.07
2022-08-01T08:06:57.602Z,8.97
2022-08-01T08:09:25.787Z,9.53
2022-08-01T08:11:55.302Z,9.87
2022-08-01T08:14:32.370Z,10.67
2022-08-01T08:17:02.266Z,7.97
2022-08-01T08:19:38.468Z,11.77
2022-08-01T08:22:08.731Z,9.83
2022-08-01T08:24:37.289Z,12.27
2022-08-01T08:27:17.244Z,10.97
2022-08-01T08:29:47.559Z,8.20
2022-08-01T08:32:15.775Z,13.13
2022-08-01T08:34:44.358Z,7.87
2022-08-01T08:37:12.780Z,8.17
2022-08-01T08:39:41.390Z,9.53
2022-08-01T08:42:11.321Z,9.03
2022-08-01T08:44:44.302Z,11.43
2022-08-01T08:47:19.255Z,10.43
2022-08-01T08:49:50.007Z,7.80
2022-08-01T08:52:20.876Z,9.50
2022-08-01T08:54:51.395Z,6.77
2022-08-01T08:57:21.638Z,9.33
2022-08-01T08:59:55.150Z,9.83
2022-08-01T09:02:24.613Z,8.50
2022-08-01T09:04:52.877Z,8.67
2022-08-01T09:07:21.022Z,10.47
2022-08-01T09:09:50.217Z,9.30
2022-08-01T09:12:21.266Z,5.17
2022-08-01T09:14:54.376Z,10.90
2022-08-01T09:17:22.973Z,7.90
2022-08-01T09:19:54.608Z,8.80
2022-08-01T09:22:24.731Z,8.50
2022-08-01T09:25:01.030Z,7.37
2022-08-01T09:27:29.538Z,7.83
2022-08-01T09:30:11.391Z,8.10
2022-08-01T09:32:55.890Z,8.10
2022-08-01T09:35:30.334Z,9.80
2022-08-01T09:38:16.725Z,8.30
2022-08-01T09:40:53.978Z,8.33
2022-08-01T09:43:23.774Z,10.10
2022-08-01T09:45:53.778Z,7.03
2022-08-01T09:48:28.106Z,10.70
2022-08-01T09:51:04.190Z,7.47
2022-08-01T09:53:51.282Z,7.60
2022-08-01T09:56:23.216Z,7.93
2022-08-01T09:59:00.924Z,7.13
2022-08-01T10:01:44.917Z,11.77
2022-08-01T10:04:15.071Z,6.83
2022-08-01T10:06:45.586Z,7.23
2022-08-01T10:09:14.856Z,9.83
2022-08-01T10:11:44.971Z,6.27
2022-08-01T10:14:18.102Z,8.20
2022-08-01T10:16:53.621Z,7.20
2022-08-01T10:19:24.589Z,10.00
2022-08-01T10:21:58.059Z,9.60
2022-08-01T10:24:29.976Z,7.17
2022-08-01T10:27:05.801Z,7.73
2022-08-01T10:29:46.259Z,8.33
2022-08-01T10:32:18.121Z,7.83
2022-08-01T10:34:47.695Z,7.80
2022-08-01T10:37:18.191Z,5.23
2022-08-01T10:39:46.997Z,7.90
2022-08-01T10:42:15.841Z,9.67
2022-08-01T10:44:48.110Z,10.73
2022-08-01T10:47:50.767Z,6.70
2022-08-01T10:50:26.097Z,8.27
2022-08-01T10:53:16.093Z,7.93
2022-08-01T10:55:53.591Z,7.00
2022-08-01T10:58:28.139Z,8.93
2022-08-01T11:01:21.175Z,7.17
2022-08-01T11:04:04.876Z,6.27
2022-08-01T11:06:43.286Z,6.00
2022-08-01T11:09:37.434Z,8.07
2022-08-01T11:12:13.567Z,6.47
2022-08-01T11:15:31.734Z,4.50
2022-08-01T11:18:05.446Z,6.47
2022-08-01T11:20:42.084Z,8.97
2022-08-01T11:23:20.408Z,7.00
2022-08-01T11:26:14.884Z,5.83
2022-08-01T11:29:10.999Z,9.00
2022-08-01T11:31:37.855Z,4.97
2022-08-01T11:34:06.772Z,4.23
2022-08-01T11:36:58.143Z,4.50
2022-08-01T11:39:24.981Z,6.67
2022-08-01T11:41:55.525Z,8.13
2022-08-01T11:44:26.849Z,4.47
2022-08-01T11:47:09.856Z,4.03
2022-08-01T11:49:58.847Z,7.77
2022-08-01T11:52:30.484Z,11.67
2022-08-01T11:54:59.935Z,5.87
2022-08-01T11:57:34.573Z,7.13
2022-08-01T12:00:08.734Z,6.60
2022-08-01T12:02:45.506Z,5.60
2022-08-01T12:05:15.515Z,6.27
2022-08-01T12:07:47.328Z,6.27
2022-08-01T12:10:17.367Z,4.37
2022-08-01T12:12:47.195Z,7.63
2022-08-01T12:15:15.811Z,6.20
2022-08-01T12:17:47.153Z,9.17
2022-08-01T12:20:29.783Z,11.03
2022-08-01T12:23:01.747Z,7.67
2022-08-01T12:25:30.381Z,8.73
2022-08-01T12:28:02.408Z,6.80
2022-08-01T12:30:31.879Z,6.60
2022-08-01T12:33:00.575Z,9.37
2022-08-01T12:35:30.385Z,6.47
2022-08-01T12:38:02.180Z,8.70
2022-08-01T12:40:32.414Z,7.57
2022-08-01T12:43:03.159Z,7.47
2022-08-01T12:45:35.092Z,6.13
2022-08-01T12:48:04.042Z,5.23
2022-08-01T12:50:34.057Z,5.63
2022-08-01T12:53:04.567Z,6.43
2022-08-01T12:55:38.091Z,5.00
2022-08-01T12:58:26.151Z,6.67
2022-08-01T13:01:05.860Z,7.20
2022-08-01T13:03:34.372Z,6.67
2022-08-01T13:06:02.775Z,5.90
2022-08-01T13:08:34.441Z,6.53
2022-08-01T13:11:05.703Z,7.33
2022-08-01T13:13:41.005Z,7.23
2022-08-01T13:16:15.435Z,7.20
2022-08-01T13:18:51.567Z,5.17
2022-08-01T13:21:21.221Z,5.60
2022-08-01T13:24:11.695Z,6.23
2022-08-01T13:26:41.324Z,5.90
2022-08-01T13:29:10.725Z,7.20
2022-08-01T13:31:40.117Z,7.20
2022-08-01T13:34:08.507Z,7.60
2022-08-01T13:36:36.983Z,7.30
2022-08-01T13:39:23.768Z,6.37
2022-08-01T13:41:53.909Z,6.80
2022-08-01T13:44:22.315Z,5.07
2022-08-01T13:46:51.321Z,7.27
2022-08-01T13:49:20.379Z,9.77
2022-08-01T13:51:51.966Z,5.33
2022-08-01T13:54:20.470Z,6.63
2022-08-01T13:56:48.578Z,4.97
2022-08-01T13:59:17.986Z,7.30
2022-08-01T14:01:46.662Z,7.37
2022-08-01T14:04:15.398Z,5.93
2022-08-01T14:06:43.881Z,6.27
2022-08-01T14:09:17.778Z,7.47
2022-08-01T14:11:52.879Z,4.47
2022-08-01T14:14:22.392Z,5.97
2022-08-01T14:16:50.531Z,5.70
2022-08-01T14:19:19.316Z,7.13
2022-08-01T14:21:53.366Z,4.90
2022-08-01T14:24:21.557Z,6.40
2022-08-01T14:26:49.649Z,6.90
2022-08-01T14:29:17.832Z,5.00
2022-08-01T14:31:47.339Z,2.67
2022-08-01T14:34:16.541Z,7.00
2022-08-01T14:36:44.822Z,6.30
2022-08-01T14:39:14.868Z,5.67
2022-08-01T14:41:43.296Z,6.10
2022-08-01T14:44:13.610Z,5.60
2022-08-01T14:46:58.063Z,7.10
2022-08-01T14:49:28.401Z,6.37
2022-08-01T14:51:56.580Z,6.53
2022-08-01T14:54:26.984Z,4.83
2022-08-01T14:56:57.918Z,4.53
2022-08-01T14:59:26.305Z,5.13
2022-08-01T15:01:54.491Z,6.33
2022-08-01T15:04:22.703Z,7.80
2022-08-01T15:06:52.183Z,4.63
2022-08-01T15:09:20.345Z,6.33
2022-08-01T15:11:48.966Z,6.37
2022-08-01T15:14:34.732Z,4.93
2022-08-01T15:17:02.939Z,4.33
2022-08-01T15:19:31.170Z,5.40
2022-08-01T15:22:01.672Z,7.67
2022-08-01T15:24:30.036Z,4.40
2022-08-01T15:26:58.187Z,5.07
2022-08-01T15:29:26.666Z,5.70
2022-08-01T15:31:54.780Z,6.80
2022-08-01T15:34:22.950Z,8.03
2022-08-01T15:36:51.286Z,7.70
2022-08-01T15:39:20.819Z,6.53
2022-08-01T15:41:49.116Z,6.60
2022-08-01T15:44:19.102Z,4.63
2022-08-01T15:46:47.312Z,6.23
2022-08-01T15:49:15.873Z,8.37
2022-08-01T15:51:44.361Z,7.53
2022-08-01T15:54:14.783Z,6.00
2022-08-01T15:56:44.674Z,8.30
2022-08-01T15:59:12.923Z,4.67
2022-08-01T16:01:41.987Z,6.83
2022-08-01T16:04:10.221Z,6.53
2022-08-01T16:06:38.489Z,6.73
2022-08-01T16:09:07.393Z,5.17
2022-08-01T16:11:39.632Z,7.03
2022-08-01T16:14:11.934Z,4.47
2022-08-01T16:16:40.174Z,8.03
2022-08-01T16:19:08.394Z,7.40
2022-08-01T16:21:36.586Z,6.57
2022-08-01T16:24:05.170Z,6.13
2022-08-01T16:26:33.359Z,6.07
2022-08-01T16:29:01.588Z,6.33
2022-08-01T16:32:07.364Z,9.37
2022-08-01T16:34:21.183Z,5.00
2022-08-01T16:36:53.285Z,7.03
2022-08-01T16:39:23.542Z,6.63
2022-08-01T16:41:55.205Z,7.13
2022-08-01T16:44:29.084Z,6.90
2022-08-01T16:47:04.255Z,8.40
2022-08-01T16:49:33.188Z,6.60
2022-08-01T16:52:01.466Z,6.33
2022-08-01T16:54:29.646Z,7.60
2022-08-01T16:57:07.568Z,9.00
2022-08-01T16:59:41.878Z,4.10
2022-08-01T17:02:12.212Z,5.90
2022-08-01T17:04:40.347Z,7.50
2022-08-01T17:07:09.369Z,10.20
2022-08-01T17:09:42.966Z,9.33
2022-08-01T17:12:13.994Z,7.93
2022-08-01T17:14:50.416Z,5.90
2022-08-01T17:17:19.923Z,9.17
2022-08-01T17:19:48.036Z,7.77
2022-08-01T17:22:16.321Z,6.23
2022-08-01T17:24:44.426Z,4.93
2022-08-01T17:27:13.708Z,6.37
2022-08-01T17:29:44.057Z,4.97
2022-08-01T17:32:14.424Z,7.67
2022-08-01T17:34:44.038Z,7.37
2022-08-01T17:37:12.822Z,8.20
2022-08-01T17:39:40.987Z,7.93
2022-08-01T17:42:10.762Z,6.30
2022-08-01T17:44:39.134Z,4.97
2022-08-01T17:47:10.183Z,6.30
2022-08-01T17:49:54.743Z,4.23
2022-08-01T17:52:29.389Z,4.90
2022-08-01T17:54:58.496Z,6.73
2022-08-01T17:57:27.107Z,11.00
2022-08-01T17:59:55.389Z,4.67
2022-08-01T18:02:23.962Z,3.53
2022-08-01T18:04:56.477Z,7.73
2022-08-01T18:08:01.229Z,6.43
2022-08-01T18:10:14.494Z,4.93
2022-08-01T18:12:44.949Z,7.17
2022-08-01T18:15:15.103Z,6.70
2022-08-01T18:17:43.711Z,6.50
2022-08-01T18:20:12.852Z,5.37
2022-08-01T18:22:42.369Z,4.40
2022-08-01T18:25:11.326Z,8.20
2022-08-01T18:28:22.709Z,4.43
2022-08-01T18:30:27.763Z,6.63
2022-08-01T18:32:56.186Z,6.30
2022-08-01T18:35:51.454Z,6.43
2022-08-01T18:38:14.118Z,4.63
2022-08-01T18:40:42.738Z,7.73
2022-08-01T18:43:11.857Z,4.27
2022-08-01T18:45:42.890Z,8.90
2022-08-01T18:48:11.583Z,6.27
2022-08-01T18:50:40.692Z,7.20
2022-08-01T18:53:09.009Z,7.40
2022-08-01T18:55:39.544Z,4.57
2022-08-01T18:58:07.721Z,3.70
2022-08-01T19:00:35.952Z,6.17
2022-08-01T19:03:04.357Z,3.80
2022-08-01T19:05:34.864Z,5.57
2022-08-01T19:08:06.120Z,7.07
2022-08-01T19:10:36.304Z,3.33
2022-08-01T19:13:05.891Z,5.00
2022-08-01T19:15:34.445Z,5.60
2022-08-01T19:18:03.113Z,5.33
2022-08-01T19:20:31.618Z,6.60
2022-08-01T19:23:22.631Z,6.67
2022-08-01T19:25:55.029Z,5.13
2022-08-01T19:28:26.115Z,6.93
2022-08-01T19:30:55.506Z,5.57
2022-08-01T19:33:24.081Z,6.40
2022-08-01T19:35:53.966Z,5.77
2022-08-01T19:38:22.038Z,7.20
2022-08-01T19:40:50.875Z,5.97
2022-08-01T19:43:22.826Z,5.47
2022-08-01T19:45:52.393Z,3.93
2022-08-01T19:48:20.808Z,4.47
2022-08-01T19:50:50.315Z,5.27
2022-08-01T19:53:20.581Z,6.77
2022-08-01T19:55:49.211Z,6.70
2022-08-01T19:58:28.028Z,7.47
2022-08-01T20:00:58.440Z,7.10
2022-08-01T20:03:28.286Z,5.30
2022-08-01T20:05:56.990Z,5.67
2022-08-01T20:08:25.607Z,4.53
2022-08-01T20:10:55.111Z,4.70
2022-08-01T20:13:23.757Z,6.23
2022-08-01T20:15:53.480Z,4.27
2022-08-01T20:18:23.588Z,4.83
2022-08-01T20:20:53.626Z,4.07
2022-08-01T20:23:25.605Z,5.20
2022-08-01T20:25:59.062Z,7.50
2022-08-01T20:28:29.504Z,6.13
2022-08-01T20:31:05.021Z,5.50
2022-08-01T20:33:36.166Z,4.57
2022-08-01T20:36:12.007Z,6.00
2022-08-01T20:38:54.583Z,5.43
2022-08-01T20:41:24.355Z,4.37
2022-08-01T20:43:55.080Z,7.67
2022-08-01T20:46:26.224Z,4.10
2022-08-01T20:48:58.501Z,5.03
2022-08-01T20:51:27.686Z,5.37
2022-08-01T20:53:57.192Z,3.63
2022-08-01T20:56:36.268Z,5.43
2022-08-01T20:59:11.598Z,4.10
2022-08-01T21:02:07.210Z,4.87
2022-08-01T21:04:57.161Z,4.17
2022-08-01T21:07:27.393Z,5.47
2022-08-01T21:10:04.714Z,4.57
2022-08-01T21:12:43.672Z,5.00
2022-08-01T21:15:16.898Z,4.27
2022-08-01T21:17:47.730Z,4.13
2022-08-01T21:20:20.357Z,6.33
2022-08-01T21:22:58.878Z,4.97
2022-08-01T21:25:31.601Z,4.50
2022-08-01T21:28:01.923Z,3.87
2022-08-01T21:30:31.649Z,4.17
2022-08-01T21:33:00.511Z,4.43
2022-08-01T21:35:30.054Z,5.03
2022-08-01T21:38:00.166Z,6.40
2022-08-01T21:40:28.358Z,6.83
2022-08-01T21:42:56.449Z,6.83
2022-08-01T21:45:27.201Z,4.03
2022-08-01T21:47:56.478Z,4.33
2022-08-01T21:50:25.413Z,5.23
2022-08-01T21:53:05.437Z,5.60
2022-08-01T21:55:38.580Z,5.67
2022-08-01T21:58:31.874Z,5.50
2022-08-01T22:01:11.339Z,2.57
2022-08-01T22:03:46.691Z,7.23
2022-08-01T22:06:16.200Z,5.53
2022-08-01T22:08:51.698Z,4.70
2022-08-01T22:11:22.834Z,4.83
2022-08-01T22:13:55.010Z,4.60
2022-08-01T22:16:23.759Z,6.50
2022-08-01T22:18:52.603Z,3.90
2022-08-01T22:21:21.389Z,3.87
2022-08-01T22:23:52.753Z,7.43
2022-08-01T22:26:28.689Z,3.67
2022-08-01T22:28:57.558Z,4.03
2022-08-01T22:31:25.975Z,4.50
2022-08-01T22:33:54.165Z,4.90
2022-08-01T22:36:22.745Z,5.40
2022-08-01T22:38:52.235Z,4.47
2022-08-01T22:41:26.477Z,3.63
2022-08-01T22:44:00.158Z,3.73
2022-08-01T22:46:36.195Z,5.60
2022-08-01T22:49:13.294Z,3.03
2022-08-01T22:51:55.192Z,3.30
2022-08-01T22:54:36.157Z,6.00
2022-08-01T22:57:11.475Z,4.03
2022-08-01T22:59:47.319Z,3.87
2022-08-01T23:02:17.839Z,6.67
2022-08-01T23:04:48.193Z,4.13
2022-08-01T23:07:21.056Z,5.83
2022-08-01T23:09:55.118Z,5.13
2022-08-01T23:12:25.721Z,3.97
2022-08-01T23:14:55.663Z,4.03
2022-08-01T23:17:26.424Z,5.63
2022-08-01T23:19:58.396Z,3.23
2022-08-01T23:22:30.059Z,4.53
2022-08-01T23:25:04.955Z,3.53
2022-08-01T23:27:55.737Z,4.20
2022-08-01T23:30:26.731Z,3.43
2022-08-01T23:32:55.160Z,5.47
2022-08-01T23:35:24.313Z,2.87
2022-08-01T23:37:52.981Z,2.53
2022-08-01T23:40:25.098Z,3.80
2022-08-01T23:42:54.744Z,2.60
2022-08-01T23:45:23.989Z,2.17
2022-08-01T23:47:52.824Z,4.47
2022-08-01T23:50:22.112Z,3.73
2022-08-01T23:52:51.349Z,2.63
2022-08-01T23:55:24.491Z,4.80
2022-08-01T23:58:07.575Z,2.50
